sensor_id;sensor_type;location;lat;lon;timestamp;pressure;altitude;pressure_sealevel;temperature;humidity
4449;BME280;2237;51.870;6.160;2022-11-15T00:00:47;100795.91;;;10.10;100.00
4449;BME280;2237;51.870;6.160;2022-11-15T00:03:17;100788.19;;;10.07;100.00
4449;BME280;2237;51.870;6.160;2022-11-15T00:05:44;100783.72;;;10.15;100.00
4449;BME280;2237;51.870;6.160;2022-11-15T00:08:11;100790.72;;;10.10;100.00
4449;BME280;2237;51.870;6.160;2022-11-15T00:10:38;100775.16;;;10.08;100.00
4449;BME280;2237;51.870;6.160;2022-11-15T00:13:09;100771.78;;;10.03;100.00
4449;BME280;2237;51.870;6.160;2022-11-15T00:15:37;100782.22;;;10.02;100.00
4449;BME280;2237;51.870;6.160;2022-11-15T00:18:04;100777.19;;;9.94;100.00
4449;BME280;2237;51.870;6.160;2022-11-15T00:20:33;100787.72;;;9.87;100.00
4449;BME280;2237;51.870;6.160;2022-11-15T00:23:00;100776.38;;;9.92;100.00
4449;BME280;2237;51.870;6.160;2022-11-15T00:25:26;100780.72;;;9.90;100.00
4449;BME280;2237;51.870;6.160;2022-11-15T00:27:57;100772.84;;;9.95;100.00
4449;BME280;2237;51.870;6.160;2022-11-15T00:30:24;100775.44;;;9.95;100.00
4449;BME280;2237;51.870;6.160;2022-11-15T00:32:51;100753.84;;;9.90;100.00
4449;BME280;2237;51.870;6.160;2022-11-15T00:35:18;100760.81;;;9.89;100.00
4449;BME280;2237;51.870;6.160;2022-11-15T00:37:44;100760.72;;;9.94;100.00
4449;BME280;2237;51.870;6.160;2022-11-15T00:40:13;100762.31;;;10.01;100.00
4449;BME280;2237;51.870;6.160;2022-11-15T00:42:40;100756.25;;;9.99;100.00
4449;BME280;2237;51.870;6.160;2022-11-15T00:45:07;100751.09;;;9.97;100.00
4449;BME280;2237;51.870;6.160;2022-11-15T00:47:34;100750.13;;;10.03;100.00
4449;BME280;2237;51.870;6.160;2022-11-15T00:50:00;100746.78;;;9.96;100.00
4449;BME280;2237;51.870;6.160;2022-11-15T00:52:26;100752.91;;;9.95;100.00
4449;BME280;2237;51.870;6.160;2022-11-15T00:54:53;100755.38;;;10.00;100.00
4449;BME280;2237;51.870;6.160;2022-11-15T00:57:19;100742.38;;;10.00;100.00
4449;BME280;2237;51.870;6.160;2022-11-15T00:59:45;100744.94;;;10.01;100.00
4449;BME280;2237;51.870;6.160;2022-11-15T01:02:12;100751.91;;;9.99;100.00
4449;BME280;2237;51.870;6.160;2022-11-15T01:04:38;100724.28;;;9.95;100.00
4449;BME280;2237;51.870;6.160;2022-11-15T01:07:05;100736.63;;;9.84;100.00
4449;BME280;2237;51.870;6.160;2022-11-15T01:09:31;100742.56;;;9.91;100.00
4449;BME280;2237;51.870;6.160;2022-11-15T01:11:58;100733.69;;;10.01;100.00
4449;BME280;2237;51.870;6.160;2022-11-15T01:14:24;100730.03;;;10.09;100.00
4449;BME280;2237;51.870;6.160;2022-11-15T01:16:51;100731.69;;;10.13;100.00
4449;BME280;2237;51.870;6.160;2022-11-15T01:19:17;100723.88;;;10.13;100.00
4449;BME280;2237;51.870;6.160;2022-11-15T01:21:43;100724.69;;;10.17;100.00
4449;BME280;2237;51.870;6.160;2022-11-15T01:24:13;100728.00;;;10.24;100.00
4449;BME280;2237;51.870;6.160;2022-11-15T01:26:39;100727.28;;;10.18;100.00
4449;BME280;2237;51.870;6.160;2022-11-15T01:29:06;100728.88;;;10.23;100.00
4449;BME280;2237;51.870;6.160;2022-11-15T01:31:32;100730.56;;;10.25;100.00
4449;BME280;2237;51.870;6.160;2022-11-15T01:33:58;100724.47;;;10.26;100.00
4449;BME280;2237;51.870;6.160;2022-11-15T01:36:25;100718.28;;;10.32;100.00
4449;BME280;2237;51.870;6.160;2022-11-15T01:38:55;100720.13;;;10.27;100.00
4449;BME280;2237;51.870;6.160;2022-11-15T01:41:26;100714.88;;;10.30;100.00
4449;BME280;2237;51.870;6.160;2022-11-15T01:43:55;100717.41;;;10.33;100.00
4449;BME280;2237;51.870;6.160;2022-11-15T01:48:53;100708.44;;;10.44;100.00
4449;BME280;2237;51.870;6.160;2022-11-15T01:51:22;100713.59;;;10.47;100.00
4449;BME280;2237;51.870;6.160;2022-11-15T01:53:53;100709.97;;;10.53;100.00
4449;BME280;2237;51.870;6.160;2022-11-15T01:56:22;100711.50;;;10.61;100.00
4449;BME280;2237;51.870;6.160;2022-11-15T01:58:50;100709.91;;;10.56;100.00
4449;BME280;2237;51.870;6.160;2022-11-15T02:01:18;100714.19;;;10.58;100.00
4449;BME280;2237;51.870;6.160;2022-11-15T02:03:58;100711.56;;;10.58;100.00
4449;BME280;2237;51.870;6.160;2022-11-15T02:06:25;100707.38;;;10.53;100.00
4449;BME280;2237;51.870;6.160;2022-11-15T02:08:51;100704.69;;;10.56;100.00
4449;BME280;2237;51.870;6.160;2022-11-15T02:11:18;100702.81;;;10.61;100.00
4449;BME280;2237;51.870;6.160;2022-11-15T02:13:45;100703.63;;;10.63;100.00
4449;BME280;2237;51.870;6.160;2022-11-15T02:16:35;100702.63;;;10.68;100.00
4449;BME280;2237;51.870;6.160;2022-11-15T02:19:33;100706.81;;;10.74;100.00
4449;BME280;2237;51.870;6.160;2022-11-15T02:22:28;100699.00;;;10.75;100.00
4449;BME280;2237;51.870;6.160;2022-11-15T02:28:50;100695.38;;;10.81;100.00
4449;BME280;2237;51.870;6.160;2022-11-15T02:31:06;100688.44;;;10.80;100.00
4449;BME280;2237;51.870;6.160;2022-11-15T02:34:10;100683.13;;;10.85;100.00
4449;BME280;2237;51.870;6.160;2022-11-15T02:36:54;100698.69;;;10.88;100.00
4449;BME280;2237;51.870;6.160;2022-11-15T02:39:46;100683.84;;;10.90;100.00
4449;BME280;2237;51.870;6.160;2022-11-15T02:42:20;100677.91;;;10.85;100.00
4449;BME280;2237;51.870;6.160;2022-11-15T02:45:09;100686.53;;;10.87;100.00
4449;BME280;2237;51.870;6.160;2022-11-15T02:47:43;100689.88;;;10.92;100.00
4449;BME280;2237;51.870;6.160;2022-11-15T02:50:12;100684.59;;;10.95;100.00
4449;BME280;2237;51.870;6.160;2022-11-15T02:52:40;100682.75;;;10.98;100.00
4449;BME280;2237;51.870;6.160;2022-11-15T02:55:38;100676.63;;;11.01;100.00
4449;BME280;2237;51.870;6.160;2022-11-15T03:01:01;100677.44;;;11.03;100.00
4449;BME280;2237;51.870;6.160;2022-11-15T03:06:18;100666.19;;;11.01;100.00
4449;BME280;2237;51.870;6.160;2022-11-15T03:09:03;100666.19;;;11.01;100.00
4449;BME280;2237;51.870;6.160;2022-11-15T03:11:35;100653.13;;;11.02;100.00
4449;BME280;2237;51.870;6.160;2022-11-15T03:16:50;100646.84;;;11.09;100.00
4449;BME280;2237;51.870;6.160;2022-11-15T03:22:00;100645.06;;;11.11;100.00
4449;BME280;2237;51.870;6.160;2022-11-15T03:24:30;100646.81;;;11.11;100.00
4449;BME280;2237;51.870;6.160;2022-11-15T03:26:59;100640.69;;;11.12;100.00
4449;BME280;2237;51.870;6.160;2022-11-15T03:29:31;100643.09;;;11.19;100.00
4449;BME280;2237;51.870;6.160;2022-11-15T03:32:03;100646.59;;;11.18;100.00
4449;BME280;2237;51.870;6.160;2022-11-15T03:37:16;100633.25;;;11.29;100.00
4449;BME280;2237;51.870;6.160;2022-11-15T03:39:44;100640.28;;;11.27;100.00
4449;BME280;2237;51.870;6.160;2022-11-15T03:42:28;100640.16;;;11.31;100.00
4449;BME280;2237;51.870;6.160;2022-11-15T03:45:15;100644.38;;;11.35;100.00
4449;BME280;2237;51.870;6.160;2022-11-15T03:48:10;100647.84;;;11.36;100.00
4449;BME280;2237;51.870;6.160;2022-11-15T03:50:39;100652.09;;;11.39;100.00
4449;BME280;2237;51.870;6.160;2022-11-15T03:53:07;100646.81;;;11.42;100.00
4449;BME280;2237;51.870;6.160;2022-11-15T03:55:34;100651.06;;;11.44;100.00
4449;BME280;2237;51.870;6.160;2022-11-15T03:58:01;100658.88;;;11.46;100.00
4449;BME280;2237;51.870;6.160;2022-11-15T04:00:28;100648.38;;;11.47;100.00
4449;BME280;2237;51.870;6.160;2022-11-15T04:02:55;100648.19;;;11.55;100.00
4449;BME280;2237;51.870;6.160;2022-11-15T04:05:21;100649.94;;;11.54;100.00
4449;BME280;2237;51.870;6.160;2022-11-15T04:07:47;100656.00;;;11.55;100.00
4449;BME280;2237;51.870;6.160;2022-11-15T04:10:14;100667.25;;;11.55;100.00
4449;BME280;2237;51.870;6.160;2022-11-15T04:12:45;100669.88;;;11.55;100.00
4449;BME280;2237;51.870;6.160;2022-11-15T04:15:18;100661.06;;;11.59;100.00
4449;BME280;2237;51.870;6.160;2022-11-15T04:17:48;100658.38;;;11.62;100.00
4449;BME280;2237;51.870;6.160;2022-11-15T04:20:16;100656.47;;;11.67;100.00
4449;BME280;2237;51.870;6.160;2022-11-15T04:23:07;100664.25;;;11.70;100.00
4449;BME280;2237;51.870;6.160;2022-11-15T04:26:12;100661.66;;;11.69;100.00
4449;BME280;2237;51.870;6.160;2022-11-15T04:28:40;100652.94;;;11.70;100.00
4449;BME280;2237;51.870;6.160;2022-11-15T04:31:27;100660.59;;;11.76;100.00
4449;BME280;2237;51.870;6.160;2022-11-15T04:33:54;100657.13;;;11.75;100.00
4449;BME280;2237;51.870;6.160;2022-11-15T04:36:21;100649.31;;;11.75;100.00
4449;BME280;2237;51.870;6.160;2022-11-15T04:39:06;100655.19;;;11.82;100.00
4449;BME280;2237;51.870;6.160;2022-11-15T04:41:33;100657.69;;;11.86;100.00
4449;BME280;2237;51.870;6.160;2022-11-15T04:43:59;100660.22;;;11.89;100.00
4449;BME280;2237;51.870;6.160;2022-11-15T04:46:25;100654.91;;;11.93;100.00
4449;BME280;2237;51.870;6.160;2022-11-15T04:48:53;100642.69;;;11.93;100.00
4449;BME280;2237;51.870;6.160;2022-11-15T04:51:24;100646.16;;;11.94;100.00
4449;BME280;2237;51.870;6.160;2022-11-15T04:53:50;100641.88;;;11.91;100.00
4449;BME280;2237;51.870;6.160;2022-11-15T04:56:16;100644.50;;;11.91;100.00
4449;BME280;2237;51.870;6.160;2022-11-15T04:58:42;100649.63;;;11.94;100.00
4449;BME280;2237;51.870;6.160;2022-11-15T05:01:14;100652.19;;;11.96;100.00
4449;BME280;2237;51.870;6.160;2022-11-15T05:03:41;100648.66;;;11.97;100.00
4449;BME280;2237;51.870;6.160;2022-11-15T05:06:27;100639.97;;;11.96;100.00
4449;BME280;2237;51.870;6.160;2022-11-15T05:08:53;100645.09;;;11.99;100.00
4449;BME280;2237;51.870;6.160;2022-11-15T05:11:20;100651.09;;;12.03;100.00
4449;BME280;2237;51.870;6.160;2022-11-15T05:13:47;100644.88;;;12.07;100.00
4449;BME280;2237;51.870;6.160;2022-11-15T05:16:14;100643.88;;;12.11;100.00
4449;BME280;2237;51.870;6.160;2022-11-15T05:18:40;100649.91;;;12.13;100.00
4449;BME280;2237;51.870;6.160;2022-11-15T05:21:13;100638.72;;;12.09;100.00
4449;BME280;2237;51.870;6.160;2022-11-15T05:23:40;100647.34;;;12.11;100.00
4449;BME280;2237;51.870;6.160;2022-11-15T05:26:08;100643.00;;;12.10;100.00
4449;BME280;2237;51.870;6.160;2022-11-15T05:28:35;100639.56;;;12.10;100.00
4449;BME280;2237;51.870;6.160;2022-11-15T05:31:12;100639.56;;;12.10;100.00
4449;BME280;2237;51.870;6.160;2022-11-15T05:33:39;100635.16;;;12.12;100.00
4449;BME280;2237;51.870;6.160;2022-11-15T05:36:17;100643.75;;;12.15;100.00
4449;BME280;2237;51.870;6.160;2022-11-15T05:38:46;100648.91;;;12.17;100.00
4449;BME280;2237;51.870;6.160;2022-11-15T05:41:17;100645.44;;;12.16;100.00
4449;BME280;2237;51.870;6.160;2022-11-15T05:43:47;100639.28;;;12.19;100.00
4449;BME280;2237;51.870;6.160;2022-11-15T05:46:15;100642.69;;;12.21;100.00
4449;BME280;2237;51.870;6.160;2022-11-15T05:48:45;100634.97;;;12.16;100.00
4449;BME280;2237;51.870;6.160;2022-11-15T05:51:14;100635.84;;;12.17;100.00
4449;BME280;2237;51.870;6.160;2022-11-15T05:53:41;100637.56;;;12.18;100.00
4449;BME280;2237;51.870;6.160;2022-11-15T05:56:08;100644.59;;;12.16;100.00
4449;BME280;2237;51.870;6.160;2022-11-15T05:58:36;100647.31;;;12.13;100.00
4449;BME280;2237;51.870;6.160;2022-11-15T06:01:02;100643.06;;;12.09;100.00
4449;BME280;2237;51.870;6.160;2022-11-15T06:03:29;100643.06;;;12.09;100.00
4449;BME280;2237;51.870;6.160;2022-11-15T06:05:56;100651.59;;;12.14;100.00
4449;BME280;2237;51.870;6.160;2022-11-15T06:08:22;100648.00;;;12.18;100.00
4449;BME280;2237;51.870;6.160;2022-11-15T06:10:49;100647.91;;;12.21;100.00
4449;BME280;2237;51.870;6.160;2022-11-15T06:13:15;100644.38;;;12.22;100.00
4449;BME280;2237;51.870;6.160;2022-11-15T06:15:41;100641.66;;;12.25;100.00
4449;BME280;2237;51.870;6.160;2022-11-15T06:18:08;100646.75;;;12.29;100.00
4449;BME280;2237;51.870;6.160;2022-11-15T06:20:34;100649.31;;;12.31;100.00
4449;BME280;2237;51.870;6.160;2022-11-15T06:23:03;100649.31;;;12.31;100.00
4449;BME280;2237;51.870;6.160;2022-11-15T06:25:30;100650.16;;;12.31;100.00
4449;BME280;2237;51.870;6.160;2022-11-15T06:27:58;100653.69;;;12.30;100.00
4449;BME280;2237;51.870;6.160;2022-11-15T06:30:26;100649.41;;;12.28;100.00
4449;BME280;2237;51.870;6.160;2022-11-15T06:32:59;100651.03;;;12.32;100.00
4449;BME280;2237;51.870;6.160;2022-11-15T06:35:26;100652.84;;;12.30;100.00
4449;BME280;2237;51.870;6.160;2022-11-15T06:37:53;100652.75;;;12.33;100.00
4449;BME280;2237;51.870;6.160;2022-11-15T06:40:19;100656.19;;;12.33;100.00
4449;BME280;2237;51.870;6.160;2022-11-15T06:42:45;100661.38;;;12.35;100.00
4449;BME280;2237;51.870;6.160;2022-11-15T06:45:12;100655.19;;;12.37;100.00
4449;BME280;2237;51.870;6.160;2022-11-15T06:47:46;100659.47;;;12.40;100.00
4449;BME280;2237;51.870;6.160;2022-11-15T06:50:13;100664.69;;;12.40;100.00
4449;BME280;2237;51.870;6.160;2022-11-15T06:52:39;100665.50;;;12.42;100.00
4449;BME280;2237;51.870;6.160;2022-11-15T06:55:06;100669.81;;;12.43;100.00
4449;BME280;2237;51.870;6.160;2022-11-15T06:57:32;100659.38;;;12.43;100.00
4449;BME280;2237;51.870;6.160;2022-11-15T06:59:59;100660.28;;;12.42;100.00
4449;BME280;2237;51.870;6.160;2022-11-15T07:02:25;100658.56;;;12.41;100.00
4449;BME280;2237;51.870;6.160;2022-11-15T07:04:52;100652.56;;;12.39;100.00
4449;BME280;2237;51.870;6.160;2022-11-15T07:07:18;100680.91;;;12.50;100.00
4449;BME280;2237;51.870;6.160;2022-11-15T07:09:45;100675.63;;;12.51;100.00
4449;BME280;2237;51.870;6.160;2022-11-15T07:12:11;100676.47;;;12.53;100.00
4449;BME280;2237;51.870;6.160;2022-11-15T07:14:37;100666.09;;;12.50;100.00
4449;BME280;2237;51.870;6.160;2022-11-15T07:17:04;100659.97;;;12.51;100.00
4449;BME280;2237;51.870;6.160;2022-11-15T07:19:31;100675.63;;;12.51;100.00
4449;BME280;2237;51.870;6.160;2022-11-15T07:22:01;100678.22;;;12.53;100.00
4449;BME280;2237;51.870;6.160;2022-11-15T07:24:27;100683.34;;;12.56;100.00
4449;BME280;2237;51.870;6.160;2022-11-15T07:26:54;100685.09;;;12.55;100.00
4449;BME280;2237;51.870;6.160;2022-11-15T07:29:20;100688.59;;;12.54;100.00
4449;BME280;2237;51.870;6.160;2022-11-15T07:31:47;100703.38;;;12.55;100.00
4449;BME280;2237;51.870;6.160;2022-11-15T07:34:14;100700.00;;;12.52;100.00
4449;BME280;2237;51.870;6.160;2022-11-15T07:36:40;100695.72;;;12.49;100.00
4449;BME280;2237;51.870;6.160;2022-11-15T07:39:06;100703.47;;;12.52;100.00
4449;BME280;2237;51.870;6.160;2022-11-15T07:41:33;100705.19;;;12.53;100.00
4449;BME280;2237;51.870;6.160;2022-11-15T07:43:59;100700.66;;;12.58;100.00
4449;BME280;2237;51.870;6.160;2022-11-15T07:46:26;100705.78;;;12.61;100.00
4449;BME280;2237;51.870;6.160;2022-11-15T07:48:52;100712.84;;;12.59;100.00
4449;BME280;2237;51.870;6.160;2022-11-15T07:51:19;100711.88;;;12.62;100.00
4449;BME280;2237;51.870;6.160;2022-11-15T07:53:46;100704.94;;;12.61;100.00
4449;BME280;2237;51.870;6.160;2022-11-15T07:56:12;100712.78;;;12.61;100.00
4449;BME280;2237;51.870;6.160;2022-11-15T07:58:39;100705.78;;;12.61;100.00
4449;BME280;2237;51.870;6.160;2022-11-15T08:01:07;100712.50;;;12.68;100.00
4449;BME280;2237;51.870;6.160;2022-11-15T08:03:34;100700.28;;;12.70;100.00
4449;BME280;2237;51.870;6.160;2022-11-15T08:06:02;100706.56;;;12.65;100.00
4449;BME280;2237;51.870;6.160;2022-11-15T08:08:28;100708.97;;;12.71;100.00
4449;BME280;2237;51.870;6.160;2022-11-15T08:10:57;100708.22;;;12.67;100.00
4449;BME280;2237;51.870;6.160;2022-11-15T08:13:23;100714.28;;;12.68;100.00
4449;BME280;2237;51.870;6.160;2022-11-15T08:15:50;100719.44;;;12.69;100.00
4449;BME280;2237;51.870;6.160;2022-11-15T08:18:23;100705.50;;;12.70;100.00
4449;BME280;2237;51.870;6.160;2022-11-15T08:20:49;100708.03;;;12.72;100.00
4449;BME280;2237;51.870;6.160;2022-11-15T08:23:15;100711.31;;;12.78;100.00
4449;BME280;2237;51.870;6.160;2022-11-15T08:25:42;100709.56;;;12.79;100.00
4449;BME280;2237;51.870;6.160;2022-11-15T08:28:10;100711.16;;;12.83;100.00
4449;BME280;2237;51.870;6.160;2022-11-15T08:30:38;100710.03;;;12.91;100.00
4449;BME280;2237;51.870;6.160;2022-11-15T08:33:09;100705.09;;;13.07;100.00
4449;BME280;2237;51.870;6.160;2022-11-15T08:35:36;100693.00;;;13.04;100.00
4449;BME280;2237;51.870;6.160;2022-11-15T08:38:02;100695.44;;;13.11;100.00
4449;BME280;2237;51.870;6.160;2022-11-15T08:40:29;100693.47;;;13.17;100.00
4449;BME280;2237;51.870;6.160;2022-11-15T08:42:55;100691.53;;;13.22;100.00
4449;BME280;2237;51.870;6.160;2022-11-15T08:45:21;100692.19;;;13.29;100.00
4449;BME280;2237;51.870;6.160;2022-11-15T08:47:48;100691.16;;;13.33;100.00
4449;BME280;2237;51.870;6.160;2022-11-15T08:50:19;100690.06;;;13.38;100.00
4449;BME280;2237;51.870;6.160;2022-11-15T08:52:46;100686.63;;;13.38;100.00
4449;BME280;2237;51.870;6.160;2022-11-15T08:55:14;100680.66;;;13.34;100.00
4449;BME280;2237;51.870;6.160;2022-11-15T08:57:43;100684.47;;;13.24;100.00
4449;BME280;2237;51.870;6.160;2022-11-15T09:00:09;100688.97;;;13.21;100.00
4449;BME280;2237;51.870;6.160;2022-11-15T09:02:38;100689.88;;;13.20;100.00
4449;BME280;2237;51.870;6.160;2022-11-15T09:05:05;100695.97;;;13.20;100.00
4449;BME280;2237;51.870;6.160;2022-11-15T09:07:32;100696.69;;;13.24;100.00
4449;BME280;2237;51.870;6.160;2022-11-15T09:09:58;100696.69;;;13.24;100.00
4449;BME280;2237;51.870;6.160;2022-11-15T09:12:25;100699.31;;;13.24;100.00
4449;BME280;2237;51.870;6.160;2022-11-15T09:14:52;100697.84;;;13.17;100.00
4449;BME280;2237;51.870;6.160;2022-11-15T09:17:18;100691.81;;;13.15;100.00
4449;BME280;2237;51.870;6.160;2022-11-15T09:19:50;100694.91;;;13.26;100.00
4449;BME280;2237;51.870;6.160;2022-11-15T09:22:16;100680.78;;;13.30;100.00
4449;BME280;2237;51.870;6.160;2022-11-15T09:24:42;100674.56;;;13.34;100.00
4449;BME280;2237;51.870;6.160;2022-11-15T09:27:09;100673.59;;;13.36;100.00
4449;BME280;2237;51.870;6.160;2022-11-15T09:29:35;100680.25;;;13.45;100.00
4449;BME280;2237;51.870;6.160;2022-11-15T09:32:02;100678.31;;;13.50;100.00
4449;BME280;2237;51.870;6.160;2022-11-15T09:34:28;100672.00;;;13.55;100.00
4449;BME280;2237;51.870;6.160;2022-11-15T09:36:55;100670.00;;;13.62;100.00
4449;BME280;2237;51.870;6.160;2022-11-15T09:39:21;100662.72;;;13.70;100.00
4449;BME280;2237;51.870;6.160;2022-11-15T09:41:55;100652.03;;;13.76;100.00
4449;BME280;2237;51.870;6.160;2022-11-15T09:53:19;100634.94;;;13.89;100.00
4449;BME280;2237;51.870;6.160;2022-11-15T09:58:48;100642.56;;;13.95;100.00
4449;BME280;2237;51.870;6.160;2022-11-15T10:01:29;100632.22;;;13.92;100.00
4449;BME280;2237;51.870;6.160;2022-11-15T10:04:00;100626.16;;;13.90;100.00
4449;BME280;2237;51.870;6.160;2022-11-15T10:06:28;100630.25;;;13.97;100.00
4449;BME280;2237;51.870;6.160;2022-11-15T10:09:02;100630.13;;;14.00;100.00
4449;BME280;2237;51.870;6.160;2022-11-15T10:11:32;100610.53;;;13.89;100.00
4449;BME280;2237;51.870;6.160;2022-11-15T10:14:23;100613.16;;;13.89;100.00
4449;BME280;2237;51.870;6.160;2022-11-15T10:19:46;100624.91;;;14.00;100.00
4449;BME280;2237;51.870;6.160;2022-11-15T10:27:40;100609.25;;;14.21;100.00
4449;BME280;2237;51.870;6.160;2022-11-15T10:30:14;100613.63;;;14.20;100.00
4449;BME280;2237;51.870;6.160;2022-11-15T10:32:42;100602.78;;;14.29;100.00
4449;BME280;2237;51.870;6.160;2022-11-15T10:35:27;100600.00;;;14.34;100.00
4449;BME280;2237;51.870;6.160;2022-11-15T10:38:08;100600.22;;;14.28;100.00
4449;BME280;2237;51.870;6.160;2022-11-15T10:40:36;100592.00;;;14.15;100.00
4449;BME280;2237;51.870;6.160;2022-11-15T10:45:36;100599.25;;;14.08;100.00
4449;BME280;2237;51.870;6.160;2022-11-15T10:50:40;100594.03;;;14.08;100.00
4449;BME280;2237;51.870;6.160;2022-11-15T10:55:53;100573.72;;;14.13;100.00
4449;BME280;2237;51.870;6.160;2022-11-15T10:58:39;100565.44;;;14.24;100.00
4449;BME280;2237;51.870;6.160;2022-11-15T11:01:15;100558.19;;;14.31;100.00
4449;BME280;2237;51.870;6.160;2022-11-15T11:03:45;100558.88;;;14.36;100.00
4449;BME280;2237;51.870;6.160;2022-11-15T11:06:23;100543.94;;;14.38;100.00
4449;BME280;2237;51.870;6.160;2022-11-15T11:11:23;100544.03;;;14.56;100.00
4449;BME280;2237;51.870;6.160;2022-11-15T11:13:50;100552.28;;;14.67;100.00
4449;BME280;2237;51.870;6.160;2022-11-15T11:16:42;100543.00;;;14.79;100.00
4449;BME280;2237;51.870;6.160;2022-11-15T11:22:32;100542.34;;;14.94;100.00
4449;BME280;2237;51.870;6.160;2022-11-15T11:25:23;100545.78;;;14.76;100.00
4449;BME280;2237;51.870;6.160;2022-11-15T11:30:58;100533.31;;;14.61;96.39
4449;BME280;2237;51.870;6.160;2022-11-15T11:33:32;100532.81;;;14.53;93.28
4449;BME280;2237;51.870;6.160;2022-11-15T11:39:24;100529.63;;;14.25;86.27
4449;BME280;2237;51.870;6.160;2022-11-15T11:44:57;100532.19;;;14.26;87.11
4449;BME280;2237;51.870;6.160;2022-11-15T11:47:32;100529.91;;;14.19;87.52
4449;BME280;2237;51.870;6.160;2022-11-15T11:50:19;100533.22;;;14.22;87.63
4449;BME280;2237;51.870;6.160;2022-11-15T11:53:11;100526.91;;;14.28;88.19
4449;BME280;2237;51.870;6.160;2022-11-15T11:55:44;100523.06;;;14.36;87.23
4449;BME280;2237;51.870;6.160;2022-11-15T11:58:21;100515.59;;;14.47;87.97
4449;BME280;2237;51.870;6.160;2022-11-15T12:03:28;100504.09;;;14.70;85.60
4449;BME280;2237;51.870;6.160;2022-11-15T12:06:05;100514.59;;;14.70;81.97
4449;BME280;2237;51.870;6.160;2022-11-15T12:11:13;100497.09;;;14.89;79.06
4449;BME280;2237;51.870;6.160;2022-11-15T12:13:42;100489.69;;;14.99;78.46
4449;BME280;2237;51.870;6.160;2022-11-15T12:16:16;100497.75;;;14.94;73.64
4449;BME280;2237;51.870;6.160;2022-11-15T12:18:48;100487.13;;;14.97;74.10
4449;BME280;2237;51.870;6.160;2022-11-15T12:21:37;100470.47;;;15.17;74.37
4449;BME280;2237;51.870;6.160;2022-11-15T12:24:18;100460.22;;;15.29;74.17
4449;BME280;2237;51.870;6.160;2022-11-15T12:26:59;100464.00;;;15.24;70.66
4449;BME280;2237;51.870;6.160;2022-11-15T12:29:29;100464.75;;;15.45;70.69
4449;BME280;2237;51.870;6.160;2022-11-15T12:31:58;100443.72;;;15.46;71.79
4449;BME280;2237;51.870;6.160;2022-11-15T12:36:55;100441.28;;;15.60;71.48
4449;BME280;2237;51.870;6.160;2022-11-15T12:40:27;100442.47;;;15.72;71.27
4449;BME280;2237;51.870;6.160;2022-11-15T12:42:56;100430.88;;;15.76;70.59
4449;BME280;2237;51.870;6.160;2022-11-15T12:45:35;100420.22;;;15.79;69.37
4449;BME280;2237;51.870;6.160;2022-11-15T12:51:07;100410.47;;;16.15;67.35
4449;BME280;2237;51.870;6.160;2022-11-15T12:53:34;100401.25;;;16.24;66.10
4449;BME280;2237;51.870;6.160;2022-11-15T13:06:52;100373.41;;;22.36;45.71
4449;BME280;2237;51.870;6.160;2022-11-15T13:12:02;100362.00;;;23.96;38.97
4449;BME280;2237;51.870;6.160;2022-11-15T13:14:49;100352.97;;;24.08;38.35
4449;BME280;2237;51.870;6.160;2022-11-15T13:19:53;100351.19;;;24.79;35.84
4449;BME280;2237;51.870;6.160;2022-11-15T13:22:23;100345.59;;;24.42;36.50
4449;BME280;2237;51.870;6.160;2022-11-15T13:25:16;100346.56;;;23.90;36.44
4449;BME280;2237;51.870;6.160;2022-11-15T13:27:47;100339.44;;;23.70;37.45
4449;BME280;2237;51.870;6.160;2022-11-15T13:30:29;100349.22;;;23.90;37.29
4449;BME280;2237;51.870;6.160;2022-11-15T13:33:05;100328.97;;;23.26;37.02
4449;BME280;2237;51.870;6.160;2022-11-15T13:35:38;100328.28;;;22.70;38.71
4449;BME280;2237;51.870;6.160;2022-11-15T13:38:06;100330.31;;;22.44;39.04
4449;BME280;2237;51.870;6.160;2022-11-15T13:40:37;100326.25;;;22.40;39.30
4449;BME280;2237;51.870;6.160;2022-11-15T13:46:16;100326.56;;;23.54;36.98
4449;BME280;2237;51.870;6.160;2022-11-15T13:48:44;100320.00;;;24.21;36.19
4449;BME280;2237;51.870;6.160;2022-11-15T13:53:46;100311.28;;;23.47;36.17
4449;BME280;2237;51.870;6.160;2022-11-15T13:56:16;100307.63;;;22.73;38.00
4449;BME280;2237;51.870;6.160;2022-11-15T13:58:44;100309.97;;;22.11;38.87
4449;BME280;2237;51.870;6.160;2022-11-15T14:01:16;100308.91;;;21.68;39.96
4449;BME280;2237;51.870;6.160;2022-11-15T14:03:52;100302.88;;;21.31;40.50
4449;BME280;2237;51.870;6.160;2022-11-15T14:06:21;100302.09;;;20.94;41.02
4449;BME280;2237;51.870;6.160;2022-11-15T14:11:35;100286.06;;;20.48;42.45
4449;BME280;2237;51.870;6.160;2022-11-15T14:16:43;100284.00;;;19.26;44.08
4449;BME280;2237;51.870;6.160;2022-11-15T14:19:12;100282.53;;;18.68;45.56
4449;BME280;2237;51.870;6.160;2022-11-15T14:27:33;100261.31;;;17.28;51.41
4449;BME280;2237;51.870;6.160;2022-11-15T14:30:00;100271.75;;;17.00;52.37
4449;BME280;2237;51.870;6.160;2022-11-15T14:32:41;100268.31;;;16.68;54.46
4449;BME280;2237;51.870;6.160;2022-11-15T14:35:14;100265.81;;;16.34;56.70
4449;BME280;2237;51.870;6.160;2022-11-15T14:37:40;100260.28;;;16.07;58.48
4449;BME280;2237;51.870;6.160;2022-11-15T14:40:11;100253.66;;;15.85;60.43
4449;BME280;2237;51.870;6.160;2022-11-15T14:42:38;100249.84;;;15.57;60.81
4449;BME280;2237;51.870;6.160;2022-11-15T14:45:11;100235.41;;;15.32;63.00
4449;BME280;2237;51.870;6.160;2022-11-15T14:47:39;100238.69;;;15.18;63.81
4449;BME280;2237;51.870;6.160;2022-11-15T14:50:05;100229.66;;;15.06;63.74
4449;BME280;2237;51.870;6.160;2022-11-15T14:52:33;100229.16;;;15.00;63.95
4449;BME280;2237;51.870;6.160;2022-11-15T14:55:03;100227.44;;;14.99;64.28
4449;BME280;2237;51.870;6.160;2022-11-15T14:57:30;100219.81;;;14.94;64.08
4449;BME280;2237;51.870;6.160;2022-11-15T14:59:57;100223.97;;;14.81;65.27
4449;BME280;2237;51.870;6.160;2022-11-15T15:02:24;100219.31;;;14.69;65.79
4449;BME280;2237;51.870;6.160;2022-11-15T15:04:51;100215.94;;;14.67;66.23
4449;BME280;2237;51.870;6.160;2022-11-15T15:07:18;100208.81;;;14.69;66.40